Terminal Aerodrome Forecast
Issued by NWS

Home | Current Version | Previous Version | Graphics & Text | Print | Product List | Glossary On
Versions: 1 2 3 4 5 6 7 8 9 10 11 12 13 14 15 16 17 18 19 20 21 22 23 24 25 26 27 28 29 30 31
000
FTUS43 KLOT 292002 AAA
TAFDPA
TAF AMD
KDPA 292002Z 2920/3018 06008KT P6SM VCSH SCT020 BKN035
      TEMPO 2920/2923 5SM -TSRA BR BKN020CB
     FM300000 15004KT P6SM BKN030 BKN250
     FM300200 00000KT P6SM SCT070 BKN250
     FM300500 27005KT 5SM -SHRA BR SCT010 BKN030
     FM300800 29005KT 3SM BR OVC020
     FM301400 29009KT P6SM BKN035=

USA.gov is the U.S. government's official web portal to all federal, state and local government web resources and services.